メインページ
METAR-TAF:

METAR-TAF

空港 :

Aghajari, イラン

緯度: 30-46N, 経度: 049-40E, 海抜: 29m

現時点の気象観測

当レポートは1時間0分前の10:00(UTC)に作成
西の風 4kt
気温 17°C
湿度 34%
気圧 1022 hPa
視程10km以上
1,500メートル以下は雲なし、積乱雲なし

METAR: OIAG 231000Z 27004KT CAVOK 17/01 Q1022

時間: 14:30 (11:00 UTC)


TAF: 見つかりません

4,000以上の空港の気象観測と天気予報(METAR報とTAF報)

利用可能な観測所は地図上に黄色い丸と赤い丸で示す。

丸の上にカーソルを重ねると観測所名を参照できる。

次にクリックすると気象観測と天気予報を参照できる。

マップの切り替え:黒色「×」印の緑ボタンをクリックして拡大、「-」印の緑ボタンをクリックして縮小、緑色の三角印をクリックして隣りの地図に切り替え


METAR-TAF: